createdAt,value
2023-04-27T00:02:17.512Z,78.40
2023-04-27T00:04:45.692Z,78.60
2023-04-27T00:07:13.813Z,78.90
2023-04-27T00:09:41.763Z,79.00
2023-04-27T00:12:09.732Z,79.00
2023-04-27T00:14:37.761Z,79.20
2023-04-27T00:17:07.078Z,79.70
2023-04-27T00:19:35.454Z,79.60
2023-04-27T00:22:03.398Z,79.50
2023-04-27T00:24:31.406Z,80.10
2023-04-27T00:26:59.448Z,80.20
2023-04-27T00:29:27.522Z,80.40
2023-04-27T00:31:55.822Z,80.50
2023-04-27T00:34:25.145Z,80.70
2023-04-27T00:36:53.160Z,80.60
2023-04-27T00:39:21.259Z,81.00
2023-04-27T00:41:49.213Z,81.30
2023-04-27T00:44:24.113Z,82.10
2023-04-27T00:46:52.521Z,81.60
2023-04-27T00:49:21.113Z,81.60
2023-04-27T00:51:50.566Z,81.80
2023-04-27T00:54:21.193Z,81.90
2023-04-27T00:56:50.786Z,82.00
2023-04-27T00:59:19.444Z,82.30
2023-04-27T01:01:47.926Z,82.70
2023-04-27T01:04:16.978Z,83.10
2023-04-27T01:06:45.584Z,83.30
2023-04-27T01:09:16.547Z,83.50
2023-04-27T01:11:44.535Z,83.60
2023-04-27T01:14:12.577Z,83.80
2023-04-27T01:16:40.827Z,84.10
2023-04-27T01:19:09.316Z,84.40
2023-04-27T01:21:37.337Z,84.50
2023-04-27T01:24:08.024Z,84.50
2023-04-27T01:26:36.001Z,84.60
2023-04-27T01:29:04.179Z,84.70
2023-04-27T01:31:32.279Z,84.90
2023-04-27T01:34:00.400Z,85.40
2023-04-27T01:36:28.742Z,85.20
2023-04-27T01:38:56.718Z,85.10
2023-04-27T01:41:26.028Z,85.50
2023-04-27T01:43:54.005Z,85.40
2023-04-27T01:46:22.044Z,85.30
2023-04-27T01:48:50.046Z,85.50
2023-04-27T01:51:18.051Z,85.70
2023-04-27T01:53:46.015Z,85.80
2023-04-27T01:56:14.040Z,86.00
2023-04-27T01:58:43.402Z,86.40
2023-04-27T02:01:11.546Z,86.50
2023-04-27T02:03:39.755Z,86.60
2023-04-27T02:06:08.257Z,86.90
2023-04-27T02:08:36.456Z,87.20
2023-04-27T02:11:04.511Z,87.50
2023-04-27T02:13:32.515Z,87.60
2023-04-27T02:16:03.304Z,88.00
2023-04-27T02:18:32.479Z,87.90
2023-04-27T02:21:00.769Z,88.30
2023-04-27T02:23:28.802Z,88.20
2023-04-27T02:25:56.794Z,88.30
2023-04-27T02:28:24.760Z,88.20
2023-04-27T02:30:53.178Z,88.60
2023-04-27T02:33:22.714Z,88.80
2023-04-27T02:35:50.768Z,88.90
2023-04-27T02:38:18.744Z,89.70
2023-04-27T02:40:46.728Z,88.80
2023-04-27T02:43:14.696Z,88.90
2023-04-27T02:45:42.633Z,89.10
2023-04-27T02:48:10.650Z,89.40
2023-04-27T02:50:43.223Z,89.40
2023-04-27T02:53:12.038Z,90.00
2023-04-27T02:55:40.335Z,90.20
2023-04-27T02:58:08.341Z,90.10
2023-04-27T03:00:36.303Z,90.20
2023-04-27T03:03:04.741Z,90.10
2023-04-27T03:05:32.905Z,90.30
2023-04-27T03:08:02.338Z,90.30
2023-04-27T03:10:30.395Z,90.40
2023-04-27T03:12:58.315Z,90.40
2023-04-27T03:15:26.354Z,90.50
2023-04-27T03:17:54.382Z,90.60
2023-04-27T03:20:23.450Z,90.70
2023-04-27T03:22:51.470Z,90.50
2023-04-27T03:25:21.712Z,90.70
2023-04-27T03:27:49.694Z,90.70
2023-04-27T03:30:17.751Z,90.70
2023-04-27T03:32:47.739Z,90.80
2023-04-27T03:35:15.987Z,90.80
2023-04-27T03:37:46.266Z,91.10
2023-04-27T03:40:15.479Z,91.30
2023-04-27T03:42:44.853Z,91.30
2023-04-27T03:45:13.191Z,91.80
2023-04-27T03:47:41.338Z,91.40
2023-04-27T03:50:10.221Z,91.50
2023-04-27T03:52:38.187Z,91.80
2023-04-27T03:55:07.322Z,91.80
2023-04-27T03:57:35.297Z,91.80
2023-04-27T04:00:11.445Z,91.90
2023-04-27T04:02:39.640Z,92.10
2023-04-27T04:05:07.961Z,92.20
2023-04-27T04:07:36.238Z,92.40
2023-04-27T04:10:04.441Z,92.30
2023-04-27T04:12:32.464Z,92.30
2023-04-27T04:15:00.630Z,92.20
2023-04-27T04:17:30.265Z,92.20
2023-04-27T04:19:58.237Z,92.10
2023-04-27T04:22:26.309Z,92.00
2023-04-27T04:24:54.279Z,91.90
2023-04-27T04:27:22.317Z,91.80
2023-04-27T04:29:50.544Z,91.60
2023-04-27T04:32:19.939Z,91.40
2023-04-27T04:34:51.801Z,91.40
2023-04-27T04:37:19.771Z,91.30
2023-04-27T04:39:47.814Z,91.20
2023-04-27T04:42:16.067Z,91.10
2023-04-27T04:44:44.671Z,90.90
2023-04-27T04:47:13.161Z,90.70
2023-04-27T04:49:41.174Z,90.50
2023-04-27T04:52:10.563Z,90.40
2023-04-27T04:54:38.554Z,90.10
2023-04-27T04:57:07.816Z,89.90
2023-04-27T04:59:36.024Z,89.60
2023-04-27T05:02:04.075Z,88.60
2023-04-27T05:04:32.433Z,88.30
2023-04-27T05:07:01.309Z,87.70
2023-04-27T05:09:30.611Z,87.50
2023-04-27T05:11:58.609Z,87.30
2023-04-27T05:14:27.038Z,87.20
2023-04-27T05:16:55.179Z,87.30
2023-04-27T05:19:23.241Z,87.10
2023-04-27T05:21:51.348Z,87.30
2023-04-27T05:24:19.322Z,87.50
2023-04-27T05:26:48.643Z,88.50
2023-04-27T05:29:17.371Z,87.90
2023-04-27T05:31:45.429Z,88.30
2023-04-27T05:34:13.440Z,88.50
2023-04-27T05:36:41.498Z,88.40
2023-04-27T05:39:09.581Z,88.50
2023-04-27T05:41:37.618Z,89.20
2023-04-27T05:44:07.696Z,88.20
2023-04-27T05:46:38.387Z,87.60
2023-04-27T05:49:06.836Z,87.50
2023-04-27T05:51:34.960Z,87.20
2023-04-27T05:54:03.103Z,87.10
2023-04-27T05:56:31.141Z,86.90
2023-04-27T05:59:01.218Z,86.60
2023-04-27T06:01:31.973Z,86.20
2023-04-27T06:04:01.895Z,86.10
2023-04-27T06:06:32.966Z,85.60
2023-04-27T06:09:01.381Z,85.50
2023-04-27T06:11:29.635Z,85.80
2023-04-27T06:13:57.613Z,85.50
2023-04-27T06:16:25.848Z,85.20
2023-04-27T06:18:55.328Z,85.10
2023-04-27T06:21:23.292Z,84.60
2023-04-27T06:23:51.322Z,84.90
2023-04-27T06:26:19.316Z,85.40
2023-04-27T06:28:47.797Z,83.90
2023-04-27T06:31:15.866Z,82.50
2023-04-27T06:33:43.843Z,82.90
2023-04-27T06:36:13.328Z,82.60
2023-04-27T06:38:41.399Z,81.70
2023-04-27T06:41:09.401Z,80.80
2023-04-27T06:43:37.385Z,79.50
2023-04-27T06:46:06.303Z,79.00
2023-04-27T06:48:35.069Z,78.70
2023-04-27T06:51:03.178Z,77.90
2023-04-27T06:53:33.421Z,77.90
2023-04-27T06:56:02.047Z,77.80
2023-04-27T06:58:30.144Z,76.60
2023-04-27T07:00:58.189Z,75.90
2023-04-27T07:03:27.050Z,76.00
2023-04-27T07:05:56.718Z,75.30
2023-04-27T07:08:24.941Z,75.00
2023-04-27T07:10:54.330Z,74.90
2023-04-27T07:13:22.290Z,74.00
2023-04-27T07:15:55.079Z,72.50
2023-04-27T07:18:23.054Z,73.00
2023-04-27T07:20:51.281Z,71.70
2023-04-27T07:23:19.235Z,71.10
2023-04-27T07:25:47.198Z,70.80
2023-04-27T07:28:16.803Z,68.70
2023-04-27T07:30:44.890Z,68.70
2023-04-27T07:33:13.355Z,69.50
2023-04-27T07:35:42.035Z,69.10
2023-04-27T07:38:10.042Z,67.00
2023-04-27T07:40:38.073Z,65.70
2023-04-27T07:43:06.126Z,64.60
2023-04-27T07:45:38.075Z,64.80
2023-04-27T07:48:06.924Z,65.00
2023-04-27T07:50:34.995Z,64.10
2023-04-27T07:53:03.200Z,63.10
2023-04-27T07:55:31.365Z,62.40
2023-04-27T07:57:59.398Z,58.80
2023-04-27T08:00:28.015Z,59.30
2023-04-27T08:02:57.880Z,58.40
2023-04-27T08:05:26.465Z,57.70
2023-04-27T08:07:54.896Z,58.00
2023-04-27T08:10:23.815Z,55.60
2023-04-27T08:12:51.844Z,56.60
2023-04-27T08:15:19.905Z,56.90
2023-04-27T08:17:48.351Z,56.20
2023-04-27T08:20:17.819Z,55.60
2023-04-27T08:22:45.965Z,54.40
2023-04-27T08:25:13.944Z,53.90
2023-04-27T08:27:42.260Z,52.80
2023-04-27T08:30:11.328Z,50.80
2023-04-27T08:32:40.091Z,50.60
2023-04-27T08:35:08.709Z,52.20
2023-04-27T08:37:38.097Z,52.70
2023-04-27T08:40:08.282Z,53.00
2023-04-27T08:42:36.432Z,51.60
2023-04-27T08:45:08.448Z,51.40
2023-04-27T08:47:43.201Z,51.10
2023-04-27T08:50:13.332Z,51.90
2023-04-27T08:52:45.461Z,52.80
2023-04-27T08:55:16.496Z,52.10
2023-04-27T08:57:55.525Z,49.60
2023-04-27T09:00:24.809Z,47.90
2023-04-27T09:02:53.121Z,44.00
2023-04-27T09:05:22.371Z,35.40
2023-04-27T09:08:04.905Z,33.70
2023-04-27T09:10:45.882Z,27.80
2023-04-27T09:13:14.026Z,28.60
2023-04-27T09:15:47.835Z,32.90
2023-04-27T09:18:18.399Z,38.20
2023-04-27T09:20:47.432Z,41.10
2023-04-27T09:23:29.032Z,43.90
2023-04-27T09:25:57.891Z,46.00
2023-04-27T09:28:27.541Z,47.10
2023-04-27T09:30:56.912Z,47.80
2023-04-27T09:33:26.299Z,47.70
2023-04-27T09:35:55.050Z,46.60
2023-04-27T09:38:24.317Z,42.60
2023-04-27T09:40:54.778Z,34.80
2023-04-27T09:43:23.372Z,33.80
2023-04-27T09:45:51.997Z,31.50
2023-04-27T09:48:20.159Z,28.60
2023-04-27T09:50:49.701Z,27.00
2023-04-27T09:53:20.481Z,25.20
2023-04-27T09:56:09.798Z,27.70
2023-04-27T09:59:00.238Z,30.00
2023-04-27T10:01:37.397Z,33.00
2023-04-27T10:04:18.131Z,34.90
2023-04-27T10:07:00.838Z,37.00
2023-04-27T10:09:31.784Z,39.00
2023-04-27T10:12:18.023Z,40.30
2023-04-27T10:14:53.711Z,40.80
2023-04-27T10:17:27.204Z,40.80
2023-04-27T10:19:58.588Z,41.80
2023-04-27T10:22:39.223Z,43.30
2023-04-27T10:25:17.820Z,42.80
2023-04-27T10:27:51.937Z,44.30
2023-04-27T10:30:21.726Z,45.70
2023-04-27T10:32:54.318Z,45.40
2023-04-27T10:35:23.178Z,44.60
2023-04-27T10:37:52.239Z,43.60
2023-04-27T10:40:20.371Z,44.30
2023-04-27T10:42:50.401Z,45.20
2023-04-27T10:45:31.551Z,46.00
2023-04-27T10:48:17.045Z,45.60
2023-04-27T10:50:46.844Z,46.20
2023-04-27T10:53:15.474Z,46.60
2023-04-27T10:55:44.295Z,47.10
2023-04-27T10:58:14.367Z,48.20
2023-04-27T11:00:44.678Z,48.90
2023-04-27T11:03:16.902Z,49.10
2023-04-27T11:05:47.018Z,48.70
2023-04-27T11:08:16.816Z,48.40
2023-04-27T11:10:50.138Z,47.70
2023-04-27T11:13:21.834Z,47.10
2023-04-27T11:15:52.092Z,46.00
2023-04-27T11:18:21.971Z,45.50
2023-04-27T11:20:52.456Z,45.10
2023-04-27T11:23:28.941Z,43.90
2023-04-27T11:25:57.618Z,43.50
2023-04-27T11:28:27.258Z,43.70
2023-04-27T11:30:59.163Z,43.50
2023-04-27T11:33:27.898Z,43.10
2023-04-27T11:35:56.658Z,42.10
2023-04-27T11:38:26.805Z,41.70
2023-04-27T11:41:03.065Z,42.40
2023-04-27T11:43:33.181Z,42.40
2023-04-27T11:46:04.640Z,42.40
2023-04-27T11:48:33.047Z,43.30
2023-04-27T11:51:01.535Z,45.30
2023-04-27T11:53:33.975Z,46.80
2023-04-27T11:56:05.255Z,47.90
2023-04-27T11:58:37.358Z,48.30
2023-04-27T12:01:05.779Z,48.40
2023-04-27T12:03:34.414Z,48.20
2023-04-27T12:08:33.951Z,48.90
2023-04-27T12:11:02.156Z,48.50
2023-04-27T12:13:30.094Z,48.30
2023-04-27T12:16:00.941Z,47.90
2023-04-27T12:18:29.110Z,47.40
2023-04-27T12:21:01.520Z,47.40
2023-04-27T12:23:30.949Z,47.80
2023-04-27T12:25:58.911Z,47.00
2023-04-27T12:28:26.890Z,46.80
2023-04-27T12:30:55.199Z,46.40
2023-04-27T12:33:24.684Z,46.00
2023-04-27T12:35:53.250Z,45.10
2023-04-27T12:38:22.153Z,45.50
2023-04-27T12:40:50.273Z,45.20
2023-04-27T12:43:18.366Z,45.40
2023-04-27T12:45:46.431Z,45.50
2023-04-27T12:48:17.496Z,45.40
2023-04-27T12:50:47.224Z,46.20
2023-04-27T12:53:15.378Z,46.10
2023-04-27T12:55:43.378Z,47.40
2023-04-27T12:58:11.378Z,49.00
2023-04-27T13:00:39.630Z,49.80
2023-04-27T13:03:07.900Z,49.40
2023-04-27T13:05:36.550Z,48.70
2023-04-27T13:08:06.616Z,48.40
2023-04-27T13:10:34.674Z,48.20
2023-04-27T13:13:04.279Z,48.80
2023-04-27T13:15:32.344Z,49.30
2023-04-27T13:18:01.810Z,49.00
2023-04-27T13:20:29.944Z,48.50
2023-04-27T13:22:57.919Z,48.10
2023-04-27T13:25:27.530Z,48.20
2023-04-27T13:27:57.994Z,48.00
2023-04-27T13:30:26.103Z,47.20
2023-04-27T13:32:54.140Z,47.30
2023-04-27T13:35:23.790Z,47.40
2023-04-27T13:37:53.877Z,46.90
2023-04-27T13:40:22.103Z,48.00
2023-04-27T13:42:52.045Z,48.30
2023-04-27T13:45:20.213Z,48.00
2023-04-27T13:47:48.231Z,48.00
2023-04-27T13:50:16.421Z,47.30
2023-04-27T13:52:44.522Z,47.10
2023-04-27T13:55:13.067Z,46.50
2023-04-27T13:57:41.048Z,46.40
2023-04-27T14:00:12.838Z,45.90
2023-04-27T14:02:41.098Z,44.80
2023-04-27T14:05:09.920Z,45.20
2023-04-27T14:07:38.012Z,45.80
2023-04-27T14:10:06.882Z,45.70
2023-04-27T14:12:35.884Z,45.50
2023-04-27T14:15:04.308Z,45.70
2023-04-27T14:17:33.731Z,45.80
2023-04-27T14:20:01.818Z,45.70
2023-04-27T14:22:31.490Z,45.80
2023-04-27T14:24:59.732Z,45.30
2023-04-27T14:27:28.795Z,44.30
2023-04-27T14:29:56.763Z,43.70
2023-04-27T14:32:24.787Z,44.30
2023-04-27T14:34:54.362Z,45.30
2023-04-27T14:37:22.456Z,45.50
2023-04-27T14:39:50.579Z,45.70
2023-04-27T14:42:18.625Z,45.80
2023-04-27T14:44:48.694Z,45.50
2023-04-27T14:47:18.784Z,46.40
2023-04-27T14:49:46.869Z,47.10
2023-04-27T14:52:16.200Z,47.70
2023-04-27T14:54:44.216Z,47.80
2023-04-27T14:57:12.203Z,47.40
2023-04-27T14:59:40.245Z,47.90
2023-04-27T15:02:08.643Z,48.00
2023-04-27T15:04:37.776Z,48.50
2023-04-27T15:07:07.533Z,48.90
2023-04-27T15:09:36.935Z,48.50
2023-04-27T15:12:07.464Z,48.10
2023-04-27T15:14:35.580Z,48.60
2023-04-27T15:17:03.769Z,49.00
2023-04-27T15:19:31.734Z,48.50
2023-04-27T15:21:59.697Z,49.20
2023-04-27T15:24:27.698Z,49.40
2023-04-27T15:26:57.085Z,50.00
2023-04-27T15:29:25.968Z,50.90
2023-04-27T15:31:53.966Z,51.30
2023-04-27T15:34:22.300Z,51.30
2023-04-27T15:36:51.308Z,51.50
2023-04-27T15:39:19.592Z,50.90
2023-04-27T15:41:47.594Z,51.00
2023-04-27T15:44:17.020Z,52.20
2023-04-27T15:46:45.341Z,52.00
2023-04-27T15:49:13.698Z,51.80
2023-04-27T15:51:41.824Z,52.30
2023-04-27T15:54:09.963Z,51.90
2023-04-27T15:56:37.992Z,51.80
2023-04-27T15:59:06.850Z,51.90
2023-04-27T16:01:36.583Z,52.20
2023-04-27T16:04:05.027Z,51.90
2023-04-27T16:06:34.983Z,52.20
2023-04-27T16:09:03.996Z,52.50
2023-04-27T16:11:32.465Z,52.70
2023-04-27T16:14:00.582Z,52.50
2023-04-27T16:16:28.616Z,52.20
2023-04-27T16:18:58.483Z,52.30
2023-04-27T16:21:26.974Z,52.70
2023-04-27T16:23:55.232Z,53.00
2023-04-27T16:26:24.390Z,53.10
2023-04-27T16:28:54.400Z,53.30
2023-04-27T16:31:22.448Z,53.50
2023-04-27T16:33:50.423Z,53.40
2023-04-27T16:36:19.781Z,53.10
2023-04-27T16:38:47.817Z,53.20
2023-04-27T16:41:15.824Z,53.60
2023-04-27T16:43:43.800Z,53.70
2023-04-27T16:46:13.156Z,53.80
2023-04-27T16:48:41.434Z,54.00
2023-04-27T16:51:10.422Z,54.10
2023-04-27T16:53:39.798Z,54.50
2023-04-27T16:56:10.036Z,54.50
2023-04-27T16:58:38.340Z,54.60
2023-04-27T17:01:06.485Z,54.70
2023-04-27T17:03:36.060Z,55.00
2023-04-27T17:06:04.338Z,55.50
2023-04-27T17:08:32.333Z,55.70
2023-04-27T17:11:01.680Z,55.70
2023-04-27T17:13:31.718Z,55.80
2023-04-27T17:15:59.769Z,55.80
2023-04-27T17:18:27.771Z,55.70
2023-04-27T17:20:55.825Z,55.90
2023-04-27T17:23:24.968Z,55.90
2023-04-27T17:25:52.953Z,56.00
2023-04-27T17:28:22.465Z,56.00
2023-04-27T17:30:50.452Z,56.40
2023-04-27T17:33:18.475Z,56.70
2023-04-27T17:35:47.285Z,56.70
2023-04-27T17:38:15.437Z,56.90
2023-04-27T17:40:44.005Z,56.90
2023-04-27T17:43:12.293Z,57.00
2023-04-27T17:45:41.610Z,57.10
2023-04-27T17:48:09.617Z,57.20
2023-04-27T17:50:38.905Z,57.40
2023-04-27T17:53:06.885Z,57.70
2023-04-27T17:55:34.966Z,57.70
2023-04-27T17:58:03.992Z,57.90
2023-04-27T18:00:32.271Z,58.20
2023-04-27T18:03:01.831Z,58.40
2023-04-27T18:05:30.012Z,58.60
2023-04-27T18:07:58.034Z,58.90
2023-04-27T18:10:26.020Z,59.10
2023-04-27T18:12:53.965Z,59.20
2023-04-27T18:15:22.072Z,59.30
2023-04-27T18:17:50.086Z,59.50
2023-04-27T18:20:19.509Z,59.40
2023-04-27T18:22:47.469Z,59.70
2023-04-27T18:25:15.997Z,59.80
2023-04-27T18:27:45.188Z,59.90
2023-04-27T18:30:13.838Z,59.80
2023-04-27T18:32:41.882Z,60.00
2023-04-27T18:35:10.680Z,60.20
2023-04-27T18:37:39.978Z,60.50
2023-04-27T18:40:09.539Z,60.30
2023-04-27T18:42:37.497Z,60.00
2023-04-27T18:45:06.438Z,59.20
2023-04-27T18:47:34.488Z,59.40
2023-04-27T18:50:02.466Z,59.70
2023-04-27T18:52:30.741Z,59.60
2023-04-27T18:55:00.168Z,59.90
2023-04-27T18:57:28.267Z,59.70
2023-04-27T18:59:56.297Z,59.60
2023-04-27T19:02:25.295Z,59.70
2023-04-27T19:05:10.455Z,59.80
2023-04-27T19:07:40.804Z,59.60
2023-04-27T19:10:11.497Z,59.90
2023-04-27T19:12:39.636Z,59.90
2023-04-27T19:15:08.429Z,60.00
2023-04-27T19:17:36.624Z,60.10
2023-04-27T19:20:05.908Z,60.10
2023-04-27T19:22:34.981Z,60.30
2023-04-27T19:25:02.993Z,60.20
2023-04-27T19:27:32.391Z,60.20
2023-04-27T19:30:00.961Z,60.30
2023-04-27T19:32:29.009Z,60.30
2023-04-27T19:34:57.937Z,60.50
2023-04-27T19:37:26.508Z,60.70
2023-04-27T19:39:54.536Z,60.90
2023-04-27T19:42:22.557Z,61.00
2023-04-27T19:44:52.058Z,61.20
2023-04-27T19:47:20.067Z,61.40
2023-04-27T19:49:48.134Z,61.80
2023-04-27T19:52:16.087Z,61.80
2023-04-27T19:54:44.076Z,61.80
2023-04-27T19:57:12.059Z,61.90
2023-04-27T19:59:40.002Z,62.50
2023-04-27T20:02:09.374Z,63.30
2023-04-27T20:04:37.552Z,63.70
2023-04-27T20:07:05.945Z,63.60
2023-04-27T20:09:34.242Z,63.70
2023-04-27T20:12:03.699Z,63.70
2023-04-27T20:14:34.043Z,64.00
2023-04-27T20:17:02.377Z,64.20
2023-04-27T20:19:32.384Z,64.80
2023-04-27T20:22:02.698Z,65.40
2023-04-27T20:24:31.264Z,65.80
2023-04-27T20:26:59.320Z,66.30
2023-04-27T20:29:27.385Z,66.50
2023-04-27T20:31:55.417Z,68.00
2023-04-27T20:34:23.533Z,68.20
2023-04-27T20:36:53.477Z,68.40
2023-04-27T20:39:24.087Z,68.40
2023-04-27T20:41:52.067Z,68.60
2023-04-27T20:44:22.438Z,69.70
2023-04-27T20:46:50.928Z,70.40
2023-04-27T20:49:24.704Z,70.40
2023-04-27T20:51:57.511Z,70.30
2023-04-27T20:54:25.578Z,70.10
2023-04-27T20:56:53.633Z,70.80
2023-04-27T20:59:21.615Z,70.60
2023-04-27T21:01:49.568Z,71.00
2023-04-27T21:04:17.783Z,71.00
2023-04-27T21:06:45.991Z,71.40
2023-04-27T21:09:15.369Z,71.80
2023-04-27T21:11:43.315Z,71.90
2023-04-27T21:14:11.260Z,71.10
2023-04-27T21:16:39.287Z,71.40
2023-04-27T21:19:08.775Z,73.50
2023-04-27T21:21:36.972Z,73.20
2023-04-27T21:24:08.211Z,73.90
2023-04-27T21:26:38.069Z,73.60
2023-04-27T21:29:08.201Z,74.40
2023-04-27T21:31:36.744Z,75.40
2023-04-27T21:34:05.113Z,75.60
2023-04-27T21:36:33.982Z,76.10
2023-04-27T21:39:02.018Z,76.60
2023-04-27T21:41:30.004Z,76.90
2023-04-27T21:43:59.352Z,76.80
2023-04-27T21:46:27.426Z,77.30
2023-04-27T21:48:55.472Z,78.00
2023-04-27T21:51:23.448Z,78.00
2023-04-27T21:53:51.416Z,78.60
2023-04-27T21:56:19.418Z,78.60
2023-04-27T21:58:47.421Z,78.50
2023-04-27T22:01:17.422Z,78.40
2023-04-27T22:03:45.730Z,78.50
2023-04-27T22:06:14.273Z,78.10
2023-04-27T22:08:42.277Z,77.70
2023-04-27T22:11:10.258Z,78.00
2023-04-27T22:13:38.516Z,78.20
2023-04-27T22:16:06.904Z,78.00
2023-04-27T22:18:36.620Z,77.40
2023-04-27T22:21:04.779Z,77.20
2023-04-27T22:23:32.752Z,77.70
2023-04-27T22:26:00.773Z,78.00
2023-04-27T22:28:28.757Z,78.50
2023-04-27T22:30:57.139Z,79.60
2023-04-27T22:33:25.328Z,79.60
2023-04-27T22:35:54.767Z,79.70
2023-04-27T22:38:23.281Z,80.10
2023-04-27T22:40:51.300Z,80.30
2023-04-27T22:43:19.392Z,81.30
2023-04-27T22:45:47.364Z,81.90
2023-04-27T22:48:15.879Z,81.50
2023-04-27T22:50:43.972Z,82.00
2023-04-27T22:53:13.338Z,82.20
2023-04-27T22:55:41.303Z,82.30
2023-04-27T22:58:09.291Z,81.90
2023-04-27T23:00:37.694Z,81.60
2023-04-27T23:03:06.111Z,81.70
2023-04-27T23:05:34.309Z,81.90
2023-04-27T23:08:03.055Z,82.00
2023-04-27T23:10:34.793Z,82.10
2023-04-27T23:13:03.270Z,82.20
2023-04-27T23:15:31.265Z,82.70
2023-04-27T23:17:59.294Z,82.20
2023-04-27T23:20:29.012Z,82.50
2023-04-27T23:22:57.498Z,82.40
2023-04-27T23:25:25.677Z,82.60
2023-04-27T23:27:55.047Z,83.30
2023-04-27T23:30:23.556Z,83.50
2023-04-27T23:32:52.083Z,83.40
2023-04-27T23:35:20.204Z,83.30
2023-04-27T23:37:48.259Z,82.80
2023-04-27T23:40:16.560Z,83.20
2023-04-27T23:42:44.518Z,83.40
2023-04-27T23:45:14.079Z,83.80
2023-04-27T23:47:42.994Z,85.20
2023-04-27T23:50:11.399Z,84.50
2023-04-27T23:52:39.412Z,83.90
2023-04-27T23:55:08.589Z,83.50
2023-04-27T23:57:36.792Z,83.40
